DGRLG EDHL-EDLW
Flight info
| Callsign | DGRLG |
|---|---|
| Flight time | N/A |
| Altitude | 8000 |
| Route | HAM1A HAM DCT BMN DCT OSN DCT HMM |
| Aircraft | DA42/L-SBDGRY/S |
Departure
| Time | 2026-05-07 19:24 |
|---|---|
| Airport | Lübeck Blankensee Airport (EDHL) |
Arrival
| Time | N/A |
|---|---|
| Airport | Dortmund Airport (EDLW) |
| Time | Latitude | Longitude | Altitude | Speed | Heading |
|---|---|---|---|---|---|
| 2026-05-07 18:54 | 53.80655 | 10.70534 | 53 ft | 0 kts | 315° |
| 2026-05-07 19:18 | 53.80656 | 10.70534 | 53 ft | 0 kts | 315° |
| 2026-05-07 19:18 | 53.80665 | 10.70514 | 53 ft | 5 kts | 276° |
| 2026-05-07 19:19 | 53.80631 | 10.70452 | 53 ft | 10 kts | 223° |
| 2026-05-07 19:19 | 53.80578 | 10.70361 | 53 ft | 10 kts | 223° |
| 2026-05-07 19:19 | 53.80514 | 10.70364 | 52 ft | 12 kts | 142° |
| 2026-05-07 19:19 | 53.80438 | 10.70454 | 53 ft | 12 kts | 146° |
| 2026-05-07 19:20 | 53.80423 | 10.70471 | 53 ft | 0 kts | 146° |
| 2026-05-07 19:22 | 53.80421 | 10.70473 | 53 ft | 2 kts | 145° |
| 2026-05-07 19:23 | 53.80375 | 10.70529 | 52 ft | 14 kts | 145° |
| 2026-05-07 19:23 | 53.80293 | 10.70642 | 54 ft | 13 kts | 104° |
| 2026-05-07 19:23 | 53.80320 | 10.70812 | 53 ft | 33 kts | 72° |
| 2026-05-07 19:23 | 53.80441 | 10.71442 | 64 ft | 74 kts | 70° |
| 2026-05-07 19:24 | 53.80604 | 10.72318 | 204 ft | 85 kts | 71° |
| 2026-05-07 19:24 | 53.80773 | 10.73288 | 451 ft | 88 kts | 74° |
| 2026-05-07 19:24 | 53.80941 | 10.74279 | 678 ft | 88 kts | 74° |
| 2026-05-07 19:24 | 53.81106 | 10.75251 | 952 ft | 83 kts | 74° |
| 2026-05-07 19:25 | 53.81284 | 10.76156 | 1239 ft | 80 kts | 70° |
| 2026-05-07 19:25 | 53.81484 | 10.77042 | 1465 ft | 80 kts | 71° |
| 2026-05-07 19:25 | 53.81678 | 10.77936 | 1681 ft | 82 kts | 72° |
| 2026-05-07 19:25 | 53.81860 | 10.78857 | 1924 ft | 82 kts | 75° |
| 2026-05-07 19:26 | 53.82036 | 10.79775 | 2199 ft | 82 kts | 75° |
| 2026-05-07 19:26 | 53.82213 | 10.80701 | 2460 ft | 83 kts | 75° |
| 2026-05-07 19:26 | 53.82392 | 10.81633 | 2730 ft | 83 kts | 75° |
| 2026-05-07 19:26 | 53.82571 | 10.82569 | 2987 ft | 85 kts | 75° |
| 2026-05-07 19:27 | 53.82753 | 10.83519 | 3239 ft | 85 kts | 75° |
| 2026-05-07 19:27 | 53.82936 | 10.84471 | 3477 ft | 85 kts | 75° |
| 2026-05-07 19:27 | 53.83120 | 10.85431 | 3715 ft | 86 kts | 75° |
| 2026-05-07 19:27 | 53.83288 | 10.86408 | 3951 ft | 86 kts | 86° |
| 2026-05-07 19:28 | 53.83179 | 10.87389 | 4192 ft | 87 kts | 117° |
| 2026-05-07 19:28 | 53.82744 | 10.88102 | 4423 ft | 91 kts | 150° |
| 2026-05-07 19:28 | 53.82109 | 10.88313 | 4658 ft | 95 kts | 169° |
| 2026-05-07 19:28 | 53.81452 | 10.88417 | 4884 ft | 97 kts | 167° |
| 2026-05-07 19:29 | 53.80747 | 10.88530 | 4994 ft | 108 kts | 168° |
| 2026-05-07 19:29 | 53.79959 | 10.88641 | 4999 ft | 121 kts | 170° |
| 2026-05-07 19:29 | 53.79086 | 10.88759 | 4999 ft | 130 kts | 171° |
| 2026-05-07 19:29 | 53.78169 | 10.88884 | 5002 ft | 134 kts | 171° |
| 2026-05-07 19:30 | 53.77222 | 10.88934 | 4996 ft | 140 kts | 183° |
| 2026-05-07 19:30 | 53.76306 | 10.88307 | 4997 ft | 147 kts | 213° |
| 2026-05-07 19:30 | 53.75666 | 10.86943 | 5000 ft | 152 kts | 245° |
| 2026-05-07 19:30 | 53.75418 | 10.85204 | 5002 ft | 153 kts | 260° |
| 2026-05-07 19:31 | 53.75239 | 10.83432 | 4999 ft | 153 kts | 260° |
| 2026-05-07 19:31 | 53.75064 | 10.81676 | 4999 ft | 153 kts | 260° |
| 2026-05-07 19:31 | 53.74883 | 10.79907 | 4997 ft | 153 kts | 260° |
| 2026-05-07 19:31 | 53.74700 | 10.78140 | 4999 ft | 153 kts | 259° |
| 2026-05-07 19:32 | 53.74516 | 10.76373 | 4997 ft | 152 kts | 260° |
| 2026-05-07 19:32 | 53.74331 | 10.74611 | 4999 ft | 152 kts | 260° |
| 2026-05-07 19:32 | 53.74147 | 10.72845 | 4999 ft | 153 kts | 260° |
| 2026-05-07 19:32 | 53.73962 | 10.71075 | 4999 ft | 153 kts | 260° |
| 2026-05-07 19:33 | 53.73777 | 10.69308 | 5001 ft | 152 kts | 259° |
| 2026-05-07 19:33 | 53.73593 | 10.67546 | 5005 ft | 152 kts | 260° |
| 2026-05-07 19:33 | 53.73408 | 10.65788 | 4998 ft | 152 kts | 259° |
| 2026-05-07 19:33 | 53.73226 | 10.64058 | 5043 ft | 143 kts | 259° |
| 2026-05-07 19:34 | 53.73065 | 10.62534 | 5260 ft | 126 kts | 259° |
| 2026-05-07 19:34 | 53.72919 | 10.61158 | 5471 ft | 115 kts | 260° |
| 2026-05-07 19:34 | 53.72774 | 10.59800 | 5657 ft | 118 kts | 260° |
| 2026-05-07 19:34 | 53.72630 | 10.58437 | 5882 ft | 118 kts | 261° |
| 2026-05-07 19:35 | 53.72487 | 10.57074 | 6094 ft | 118 kts | 261° |
| 2026-05-07 19:35 | 53.72342 | 10.55702 | 6307 ft | 118 kts | 261° |
| 2026-05-07 19:35 | 53.72197 | 10.54332 | 6520 ft | 119 kts | 261° |
| 2026-05-07 19:35 | 53.72051 | 10.52956 | 6730 ft | 119 kts | 262° |
| 2026-05-07 19:36 | 53.71905 | 10.51576 | 6937 ft | 119 kts | 261° |
| 2026-05-07 19:36 | 53.71758 | 10.50202 | 7147 ft | 119 kts | 261° |
| 2026-05-07 19:36 | 53.71611 | 10.48825 | 7345 ft | 120 kts | 261° |
| 2026-05-07 19:36 | 53.71464 | 10.47436 | 7549 ft | 120 kts | 261° |
| 2026-05-07 19:37 | 53.71318 | 10.46065 | 7764 ft | 119 kts | 261° |
| 2026-05-07 19:37 | 53.71170 | 10.44690 | 7983 ft | 119 kts | 261° |
| 2026-05-07 19:37 | 53.71024 | 10.43323 | 8193 ft | 118 kts | 261° |
| 2026-05-07 19:37 | 53.70877 | 10.41949 | 8392 ft | 119 kts | 260° |
| 2026-05-07 19:38 | 53.70727 | 10.40552 | 8579 ft | 123 kts | 261° |
| 2026-05-07 19:38 | 53.70578 | 10.39160 | 8827 ft | 119 kts | 260° |
| 2026-05-07 19:38 | 53.70429 | 10.37782 | 9038 ft | 120 kts | 260° |
| 2026-05-07 19:38 | 53.70280 | 10.36398 | 9253 ft | 120 kts | 260° |
| 2026-05-07 19:39 | 53.70130 | 10.35007 | 9454 ft | 121 kts | 260° |
| 2026-05-07 19:39 | 53.69978 | 10.33601 | 9664 ft | 122 kts | 260° |
| 2026-05-07 19:39 | 53.69826 | 10.32192 | 9875 ft | 122 kts | 259° |
| 2026-05-07 19:39 | 53.69674 | 10.30780 | 10085 ft | 122 kts | 259° |
| 2026-05-07 19:40 | 53.69515 | 10.29303 | 10126 ft | 134 kts | 259° |
| 2026-05-07 19:40 | 53.69342 | 10.27694 | 10131 ft | 143 kts | 259° |
| 2026-05-07 19:40 | 53.69161 | 10.26022 | 10135 ft | 150 kts | 259° |
| 2026-05-07 19:40 | 53.68970 | 10.24272 | 10138 ft | 154 kts | 259° |
| 2026-05-07 19:41 | 53.68776 | 10.22489 | 10136 ft | 156 kts | 259° |
| 2026-05-07 19:41 | 53.68538 | 10.20689 | 10133 ft | 157 kts | 248° |
| 2026-05-07 19:41 | 53.67972 | 10.19116 | 10135 ft | 157 kts | 234° |
| 2026-05-07 19:41 | 53.67327 | 10.17621 | 10140 ft | 158 kts | 233° |
| 2026-05-07 19:42 | 53.66679 | 10.16129 | 10136 ft | 158 kts | 233° |
| 2026-05-07 19:42 | 53.66031 | 10.14630 | 10137 ft | 158 kts | 233° |
| 2026-05-07 19:42 | 53.65382 | 10.13128 | 10137 ft | 159 kts | 233° |
| 2026-05-07 19:42 | 53.64728 | 10.11613 | 10138 ft | 161 kts | 233° |
| 2026-05-07 19:43 | 53.64077 | 10.10105 | 10139 ft | 162 kts | 233° |
| 2026-05-07 19:43 | 53.63414 | 10.08571 | 10140 ft | 162 kts | 233° |
| 2026-05-07 19:43 | 53.62747 | 10.07026 | 10139 ft | 163 kts | 233° |
| 2026-05-07 19:43 | 53.62077 | 10.05477 | 10140 ft | 164 kts | 233° |
| 2026-05-07 19:44 | 53.61406 | 10.03928 | 10136 ft | 164 kts | 233° |
| 2026-05-07 19:44 | 53.60731 | 10.02368 | 10136 ft | 164 kts | 233° |
| 2026-05-07 19:44 | 53.60058 | 10.00814 | 10136 ft | 164 kts | 233° |
| 2026-05-07 19:44 | 53.59384 | 9.99258 | 10138 ft | 165 kts | 233° |
| 2026-05-07 19:45 | 53.58709 | 9.97702 | 10133 ft | 165 kts | 233° |
| 2026-05-07 19:45 | 53.58035 | 9.96149 | 10133 ft | 164 kts | 233° |
| 2026-05-07 19:45 | 53.57361 | 9.94597 | 10133 ft | 164 kts | 233° |
| 2026-05-07 19:45 | 53.56687 | 9.93047 | 10133 ft | 164 kts | 233° |
| 2026-05-07 19:46 | 53.56011 | 9.91494 | 10133 ft | 165 kts | 233° |
| 2026-05-07 19:46 | 53.55336 | 9.89942 | 10137 ft | 164 kts | 233° |
| 2026-05-07 19:46 | 53.54660 | 9.88390 | 10133 ft | 164 kts | 233° |
| 2026-05-07 19:46 | 53.53986 | 9.86842 | 10133 ft | 164 kts | 233° |
| 2026-05-07 19:47 | 53.53311 | 9.85294 | 10133 ft | 164 kts | 233° |
| 2026-05-07 19:47 | 53.52636 | 9.83745 | 10133 ft | 164 kts | 233° |
| 2026-05-07 19:47 | 53.51959 | 9.82195 | 10132 ft | 164 kts | 233° |
| 2026-05-07 19:47 | 53.51284 | 9.80650 | 10135 ft | 164 kts | 233° |
| 2026-05-07 19:48 | 53.50614 | 9.79118 | 10136 ft | 165 kts | 233° |
| 2026-05-07 19:48 | 53.49932 | 9.77557 | 10130 ft | 166 kts | 233° |
| 2026-05-07 19:48 | 53.49248 | 9.75993 | 10137 ft | 166 kts | 233° |
| 2026-05-07 19:48 | 53.48562 | 9.74427 | 10131 ft | 166 kts | 233° |
| 2026-05-07 19:49 | 53.47876 | 9.72861 | 10134 ft | 166 kts | 233° |
| 2026-05-07 19:49 | 53.47193 | 9.71302 | 10129 ft | 166 kts | 233° |
| 2026-05-07 19:49 | 53.46508 | 9.69741 | 10126 ft | 166 kts | 233° |
| 2026-05-07 19:49 | 53.45827 | 9.68189 | 10124 ft | 165 kts | 233° |
| 2026-05-07 19:50 | 53.45146 | 9.66639 | 10122 ft | 165 kts | 233° |
| 2026-05-07 19:50 | 53.44474 | 9.65110 | 10121 ft | 164 kts | 233° |
| 2026-05-07 19:50 | 53.43797 | 9.63569 | 10119 ft | 164 kts | 233° |
| 2026-05-07 19:50 | 53.43010 | 9.62208 | 10104 ft | 163 kts | 213° |
| 2026-05-07 19:51 | 53.41964 | 9.61550 | 10100 ft | 161 kts | 201° |
| 2026-05-07 19:51 | 53.41021 | 9.60527 | 10105 ft | 162 kts | 217° |
| 2026-05-07 19:51 | 53.40139 | 9.59356 | 10104 ft | 161 kts | 218° |
| 2026-05-07 19:51 | 53.39253 | 9.58203 | 10102 ft | 161 kts | 215° |
| 2026-05-07 19:52 | 53.38338 | 9.57119 | 10105 ft | 161 kts | 213° |
| 2026-05-07 19:52 | 53.37410 | 9.56069 | 10107 ft | 160 kts | 213° |
| 2026-05-07 19:52 | 53.36485 | 9.55033 | 10099 ft | 160 kts | 213° |
| 2026-05-07 19:52 | 53.35560 | 9.53998 | 10100 ft | 160 kts | 214° |
| 2026-05-07 19:53 | 53.34635 | 9.52961 | 10098 ft | 160 kts | 214° |
| 2026-05-07 19:53 | 53.33708 | 9.51922 | 10099 ft | 161 kts | 214° |
| 2026-05-07 19:53 | 53.32779 | 9.50881 | 10097 ft | 161 kts | 214° |
| 2026-05-07 19:53 | 53.31850 | 9.49841 | 10101 ft | 161 kts | 214° |
| 2026-05-07 19:54 | 53.30920 | 9.48802 | 10099 ft | 161 kts | 214° |
| 2026-05-07 19:54 | 53.29988 | 9.47760 | 10101 ft | 161 kts | 214° |
| 2026-05-07 19:54 | 53.29068 | 9.46732 | 10100 ft | 161 kts | 214° |
| 2026-05-07 19:54 | 53.28135 | 9.45689 | 10100 ft | 162 kts | 214° |
| 2026-05-07 19:55 | 53.27196 | 9.44641 | 10099 ft | 162 kts | 214° |
| 2026-05-07 19:55 | 53.26254 | 9.43590 | 10099 ft | 163 kts | 214° |
| 2026-05-07 19:55 | 53.25313 | 9.42540 | 10099 ft | 163 kts | 214° |
| 2026-05-07 19:55 | 53.24366 | 9.41485 | 10104 ft | 164 kts | 214° |
| 2026-05-07 19:56 | 53.23417 | 9.40428 | 10104 ft | 164 kts | 214° |
| 2026-05-07 19:56 | 53.22463 | 9.39365 | 10104 ft | 165 kts | 213° |
| 2026-05-07 19:56 | 53.21505 | 9.38299 | 10108 ft | 166 kts | 214° |
| 2026-05-07 19:56 | 53.20544 | 9.37230 | 10107 ft | 166 kts | 214° |
| 2026-05-07 19:57 | 53.19905 | 9.36520 | 10103 ft | 166 kts | 213° |
| 2026-05-07 19:57 | 53.18629 | 9.35102 | 10103 ft | 167 kts | 213° |
| 2026-05-07 19:57 | 53.17662 | 9.34027 | 10107 ft | 167 kts | 213° |
| 2026-05-07 19:57 | 53.16695 | 9.32954 | 10104 ft | 167 kts | 213° |
| 2026-05-07 19:58 | 53.15730 | 9.31886 | 10110 ft | 167 kts | 213° |
| 2026-05-07 19:58 | 53.14763 | 9.30814 | 10112 ft | 167 kts | 213° |
| 2026-05-07 19:58 | 53.14107 | 9.30087 | 10110 ft | 167 kts | 213° |
| 2026-05-07 19:58 | 53.13136 | 9.29011 | 10115 ft | 168 kts | 213° |
| 2026-05-07 19:59 | 53.12162 | 9.27933 | 10111 ft | 168 kts | 213° |
| 2026-05-07 19:59 | 53.11201 | 9.26869 | 10112 ft | 168 kts | 213° |